createdAt,value
2016-12-14T00:00:50.019Z,7.02
2016-12-14T00:01:50.009Z,6.98
2016-12-14T00:02:50.003Z,7.06
2016-12-14T00:03:50.012Z,7.05
2016-12-14T00:04:49.980Z,6.97
2016-12-14T00:05:49.966Z,7.05
2016-12-14T00:06:49.956Z,7.06
2016-12-14T00:07:49.945Z,6.94
2016-12-14T00:08:49.937Z,6.97
2016-12-14T00:09:49.923Z,6.95
2016-12-14T00:10:49.910Z,7.06
2016-12-14T00:11:49.900Z,7.09
2016-12-14T00:12:49.893Z,7.12
2016-12-14T00:13:49.877Z,7.12
2016-12-14T00:14:49.876Z,7.09
2016-12-14T00:15:50.168Z,6.98
2016-12-14T00:16:49.846Z,7.1
2016-12-14T00:17:49.837Z,7.09
2016-12-14T00:18:49.825Z,7.02
2016-12-14T00:19:49.819Z,7.05
2016-12-14T00:20:49.806Z,7.06
2016-12-14T00:21:49.797Z,7.12
2016-12-14T00:22:49.787Z,7.15
2016-12-14T00:23:49.772Z,7.15
2016-12-14T00:24:49.762Z,7.17
2016-12-14T00:25:49.749Z,7.21
2016-12-14T00:26:49.741Z,7.21
2016-12-14T00:27:49.728Z,7.15
2016-12-14T00:28:49.725Z,7.21
2016-12-14T00:29:49.709Z,7.21
2016-12-14T00:30:49.706Z,7.23
2016-12-14T00:31:49.689Z,7.3
2016-12-14T00:32:49.683Z,7.27
2016-12-14T00:33:49.674Z,7.2
2016-12-14T00:34:49.663Z,7.17
2016-12-14T00:35:49.646Z,7.23
2016-12-14T00:36:49.636Z,7.23
2016-12-14T00:37:49.624Z,7.21
2016-12-14T00:38:49.616Z,7.23
2016-12-14T00:39:49.602Z,7.21
2016-12-14T00:40:49.593Z,7.17
2016-12-14T00:41:49.582Z,7.17
2016-12-14T00:42:49.571Z,7.17
2016-12-14T00:43:49.563Z,7.15
2016-12-14T00:44:49.849Z,7.2
2016-12-14T00:45:49.539Z,7.2
2016-12-14T00:46:49.534Z,7.23
2016-12-14T00:47:49.522Z,7.3
2016-12-14T00:48:49.806Z,7.25
2016-12-14T00:49:49.506Z,7.25
2016-12-14T00:50:49.485Z,7.24
2016-12-14T00:51:49.474Z,7.3
2016-12-14T00:52:49.470Z,7.27
2016-12-14T00:53:49.459Z,7.28
2016-12-14T00:54:49.449Z,7.24
2016-12-14T00:55:49.439Z,7.25
2016-12-14T00:56:49.420Z,7.28
2016-12-14T00:57:49.444Z,7.28
2016-12-14T00:58:49.403Z,7.27
2016-12-14T00:59:49.395Z,7.23
2016-12-14T01:00:49.387Z,7.28
2016-12-14T01:01:49.369Z,7.3
2016-12-14T01:02:49.355Z,7.31
2016-12-14T01:03:49.347Z,7.32
2016-12-14T01:04:49.340Z,7.24
2016-12-14T01:05:49.331Z,7.27
2016-12-14T01:06:49.317Z,7.17
2016-12-14T01:07:49.307Z,7.17
2016-12-14T01:08:49.302Z,7.16
2016-12-14T01:09:49.286Z,7.17
2016-12-14T01:10:49.275Z,7.15
2016-12-14T01:11:49.269Z,7.09
2016-12-14T01:12:49.255Z,7.21
2016-12-14T01:13:49.244Z,7.2
2016-12-14T01:14:49.239Z,7.17
2016-12-14T01:15:49.232Z,7.28
2016-12-14T01:16:49.248Z,7.25
2016-12-14T01:17:49.204Z,7.31
2016-12-14T01:18:49.191Z,7.27
2016-12-14T01:19:49.180Z,7.32
2016-12-14T01:20:49.167Z,7.31
2016-12-14T01:21:49.158Z,7.3
2016-12-14T01:22:49.144Z,7.31
2016-12-14T01:23:49.138Z,7.39
2016-12-14T01:24:49.132Z,7.28
2016-12-14T01:25:49.118Z,7.27
2016-12-14T01:26:49.109Z,7.25
2016-12-14T01:27:49.097Z,7.39
2016-12-14T01:28:49.387Z,7.39
2016-12-14T01:29:49.081Z,7.3
2016-12-14T01:30:49.065Z,7.27
2016-12-14T01:31:49.061Z,7.28
2016-12-14T01:32:49.044Z,7.28
2016-12-14T01:33:49.331Z,7.4
2016-12-14T01:34:49.021Z,7.28
2016-12-14T01:35:49.011Z,7.3
2016-12-14T01:36:49.001Z,7.28
2016-12-14T01:37:48.988Z,7.3
2016-12-14T01:38:48.984Z,7.3
2016-12-14T01:39:48.971Z,7.28
2016-12-14T01:40:48.962Z,7.3
2016-12-14T01:41:48.957Z,7.39
2016-12-14T01:42:48.936Z,7.37
2016-12-14T01:43:48.929Z,7.35
2016-12-14T01:44:48.912Z,7.4
2016-12-14T01:45:48.908Z,7.3
2016-12-14T01:46:48.902Z,7.28
2016-12-14T01:47:48.883Z,7.43
2016-12-14T01:48:48.876Z,7.39
2016-12-14T01:49:48.857Z,7.42
2016-12-14T01:50:48.857Z,7.34
2016-12-14T01:51:48.839Z,7.45
2016-12-14T01:52:48.836Z,7.46
2016-12-14T01:53:48.831Z,7.4
2016-12-14T01:54:48.817Z,7.42
2016-12-14T01:55:48.800Z,7.4
2016-12-14T01:56:49.088Z,7.43
2016-12-14T01:57:48.776Z,7.49
2016-12-14T01:58:48.767Z,7.53
2016-12-14T01:59:48.755Z,7.42
2016-12-14T02:00:48.748Z,7.43
2016-12-14T02:01:49.073Z,7.46
2016-12-14T02:02:48.737Z,7.46
2016-12-14T02:03:48.717Z,7.45
2016-12-14T02:04:48.712Z,7.43
2016-12-14T02:05:48.694Z,7.42
2016-12-14T02:06:48.687Z,7.46
2016-12-14T02:07:48.986Z,7.43
2016-12-14T02:08:48.664Z,7.48
2016-12-14T02:09:48.659Z,7.4
2016-12-14T02:10:48.640Z,7.57
2016-12-14T02:11:48.631Z,7.52
2016-12-14T02:12:48.623Z,7.46
2016-12-14T02:13:48.614Z,7.53
2016-12-14T02:14:48.604Z,7.52
2016-12-14T02:15:48.592Z,7.45
2016-12-14T02:16:48.583Z,7.45
2016-12-14T02:17:48.565Z,7.43
2016-12-14T02:18:48.561Z,7.46
2016-12-14T02:19:48.549Z,7.45
2016-12-14T02:20:48.537Z,7.43
2016-12-14T02:21:48.523Z,7.49
2016-12-14T02:22:48.516Z,7.42
2016-12-14T02:23:48.511Z,7.46
2016-12-14T02:24:48.501Z,7.42
2016-12-14T02:25:48.487Z,7.43
2016-12-14T02:26:48.471Z,7.49
2016-12-14T02:27:48.467Z,7.35
2016-12-14T02:28:48.453Z,7.45
2016-12-14T02:29:48.444Z,7.46
2016-12-14T02:30:48.437Z,7.39
2016-12-14T02:31:48.722Z,7.3
2016-12-14T02:32:48.416Z,7.25
2016-12-14T02:33:48.414Z,7.28
2016-12-14T02:34:48.396Z,7.27
2016-12-14T02:35:48.380Z,7.4
2016-12-14T02:36:48.371Z,7.3
2016-12-14T02:37:48.371Z,7.35
2016-12-14T02:38:48.345Z,7.32
2016-12-14T02:39:48.339Z,7.42
2016-12-14T02:40:48.330Z,7.4
2016-12-14T02:41:48.322Z,7.4
2016-12-14T02:42:48.308Z,7.39
2016-12-14T02:43:48.292Z,7.35
2016-12-14T02:44:48.290Z,7.37
2016-12-14T02:45:48.277Z,7.4
2016-12-14T02:46:48.267Z,7.4
2016-12-14T02:47:48.258Z,7.4
2016-12-14T02:48:48.244Z,7.25
2016-12-14T02:49:48.232Z,7.37
2016-12-14T02:50:48.222Z,7.42
2016-12-14T02:51:48.237Z,7.35
2016-12-14T02:52:48.204Z,7.4
2016-12-14T02:53:48.191Z,7.4
2016-12-14T02:54:48.187Z,7.39
2016-12-14T02:55:48.175Z,7.37
2016-12-14T02:56:48.159Z,7.48
2016-12-14T02:57:48.152Z,7.43
2016-12-14T02:58:48.141Z,7.46
2016-12-14T02:59:48.133Z,7.48
2016-12-14T03:00:48.117Z,7.52
2016-12-14T03:01:48.130Z,7.45
2016-12-14T03:02:48.096Z,7.5
2016-12-14T03:03:48.087Z,7.55
2016-12-14T03:04:48.073Z,7.53
2016-12-14T03:05:48.064Z,7.49
2016-12-14T03:06:48.362Z,7.5
2016-12-14T03:07:48.048Z,7.49
2016-12-14T03:08:48.028Z,7.58
2016-12-14T03:09:48.022Z,7.5
2016-12-14T03:10:48.012Z,7.6
2016-12-14T03:11:48.000Z,7.52
2016-12-14T03:12:47.995Z,7.45
2016-12-14T03:13:47.977Z,7.6
2016-12-14T03:14:48.273Z,7.49
2016-12-14T03:15:47.962Z,7.52
2016-12-14T03:16:47.947Z,7.6
2016-12-14T03:17:47.943Z,7.55
2016-12-14T03:18:47.931Z,7.55
2016-12-14T03:19:47.918Z,7.6
2016-12-14T03:20:47.911Z,7.52
2016-12-14T03:21:48.202Z,7.6
2016-12-14T03:22:47.884Z,7.63
2016-12-14T03:23:47.884Z,7.6
2016-12-14T03:24:47.866Z,7.67
2016-12-14T03:25:47.857Z,7.58
2016-12-14T03:26:47.844Z,7.53
2016-12-14T03:27:47.841Z,7.57
2016-12-14T03:28:47.824Z,7.49
2016-12-14T03:29:47.815Z,7.6
2016-12-14T03:30:47.808Z,7.57
2016-12-14T03:31:47.799Z,7.55
2016-12-14T03:32:47.788Z,7.57
2016-12-14T03:33:47.777Z,7.57
2016-12-14T03:34:47.766Z,7.57
2016-12-14T03:35:47.752Z,7.57
2016-12-14T03:36:47.761Z,7.58
2016-12-14T03:37:47.737Z,7.6
2016-12-14T03:38:47.728Z,7.52
2016-12-14T03:39:47.714Z,7.6
2016-12-14T03:40:47.702Z,7.61
2016-12-14T03:41:47.690Z,7.55
2016-12-14T03:42:47.686Z,7.58
2016-12-14T03:43:47.676Z,7.53
2016-12-14T03:44:47.655Z,7.55
2016-12-14T03:45:47.648Z,7.5
2016-12-14T03:46:47.643Z,7.61
2016-12-14T03:47:47.631Z,7.52
2016-12-14T03:48:47.618Z,7.5
2016-12-14T03:49:47.608Z,7.57
2016-12-14T03:50:47.608Z,7.55
2016-12-14T03:51:47.589Z,7.53
2016-12-14T03:52:47.578Z,7.53
2016-12-14T03:53:47.566Z,7.6
2016-12-14T03:54:47.553Z,7.55
2016-12-14T03:55:47.547Z,7.55
2016-12-14T03:56:47.539Z,7.67
2016-12-14T03:57:47.528Z,7.58
2016-12-14T03:58:47.509Z,7.57
2016-12-14T03:59:47.504Z,7.61
2016-12-14T04:00:47.496Z,7.67
2016-12-14T04:01:47.486Z,7.55
2016-12-14T04:02:47.474Z,7.63
2016-12-14T04:03:47.465Z,7.6
2016-12-14T04:04:47.455Z,7.55
2016-12-14T04:05:47.443Z,7.6
2016-12-14T04:06:47.430Z,7.55
2016-12-14T04:07:47.420Z,7.64
2016-12-14T04:08:47.411Z,7.55
2016-12-14T04:09:47.405Z,7.58
2016-12-14T04:10:47.393Z,7.58
2016-12-14T04:11:47.382Z,7.6
2016-12-14T04:12:47.369Z,7.61
2016-12-14T04:13:47.358Z,7.5
2016-12-14T04:14:47.348Z,7.58
2016-12-14T04:15:47.338Z,7.6
2016-12-14T04:16:47.335Z,7.58
2016-12-14T04:17:47.316Z,7.58
2016-12-14T04:18:47.306Z,7.61
2016-12-14T04:19:47.301Z,7.67
2016-12-14T04:20:47.292Z,7.61
2016-12-14T04:21:47.274Z,7.69
2016-12-14T04:22:47.268Z,7.68
2016-12-14T04:23:47.564Z,7.72
2016-12-14T04:24:47.251Z,7.72
2016-12-14T04:25:47.242Z,7.69
2016-12-14T04:26:47.227Z,7.64
2016-12-14T04:27:47.211Z,7.69
2016-12-14T04:28:47.209Z,7.71
2016-12-14T04:29:47.198Z,7.71
2016-12-14T04:30:47.187Z,7.72
2016-12-14T04:31:47.178Z,7.71
2016-12-14T04:32:47.165Z,7.67
2016-12-14T04:33:47.157Z,7.68
2016-12-14T04:34:47.142Z,7.74
2016-12-14T04:35:47.143Z,7.75
2016-12-14T04:36:47.121Z,7.79
2016-12-14T04:37:47.118Z,7.75
2016-12-14T04:38:47.111Z,7.79
2016-12-14T04:39:47.090Z,7.83
2016-12-14T04:40:47.088Z,7.86
2016-12-14T04:41:47.075Z,7.89
2016-12-14T04:42:47.063Z,7.8
2016-12-14T04:43:47.054Z,7.83
2016-12-14T04:44:47.044Z,7.9
2016-12-14T04:45:47.039Z,7.87
2016-12-14T04:46:47.027Z,7.87
2016-12-14T04:47:47.014Z,7.85
2016-12-14T04:48:47.006Z,7.9
2016-12-14T04:49:46.996Z,7.92
2016-12-14T04:50:46.984Z,7.87
2016-12-14T04:51:46.975Z,7.92
2016-12-14T04:52:46.963Z,7.9
2016-12-14T04:53:46.954Z,7.83
2016-12-14T04:54:46.941Z,7.93
2016-12-14T04:55:46.936Z,7.85
2016-12-14T04:56:46.922Z,7.92
2016-12-14T04:57:46.917Z,7.95
2016-12-14T04:58:46.903Z,7.87
2016-12-14T04:59:46.889Z,7.89
2016-12-14T05:00:46.887Z,7.92
2016-12-14T05:01:46.869Z,7.87
2016-12-14T05:02:46.868Z,7.89
2016-12-14T05:03:46.854Z,7.87
2016-12-14T05:04:46.845Z,7.89
2016-12-14T05:05:46.860Z,7.95
2016-12-14T05:06:46.818Z,7.92
2016-12-14T05:07:47.119Z,7.82
2016-12-14T05:08:46.800Z,7.85
2016-12-14T05:09:46.793Z,7.9
2016-12-14T05:10:46.784Z,7.87
2016-12-14T05:11:46.775Z,7.95
2016-12-14T05:12:46.761Z,7.98
2016-12-14T05:13:46.758Z,7.97
2016-12-14T05:14:46.744Z,7.97
2016-12-14T05:15:46.734Z,7.95
2016-12-14T05:16:46.724Z,8
2016-12-14T05:17:47.017Z,7.92
2016-12-14T05:18:46.704Z,7.95
2016-12-14T05:19:46.694Z,7.89
2016-12-14T05:20:46.684Z,7.98
2016-12-14T05:21:46.673Z,7.98
2016-12-14T05:22:46.667Z,8.01
2016-12-14T05:23:46.660Z,8.02
2016-12-14T05:24:46.640Z,7.93
2016-12-14T05:25:46.631Z,7.97
2016-12-14T05:26:46.620Z,7.87
2016-12-14T05:27:46.612Z,7.89
2016-12-14T05:28:46.603Z,7.9
2016-12-14T05:29:46.590Z,7.86
2016-12-14T05:30:46.580Z,7.92
2016-12-14T05:31:46.571Z,7.97
2016-12-14T05:32:46.563Z,8.01
2016-12-14T05:33:46.575Z,8.01
2016-12-14T05:34:46.539Z,8
2016-12-14T05:35:46.525Z,8.04
2016-12-14T05:36:46.523Z,8.01
2016-12-14T05:37:46.507Z,8.02
2016-12-14T05:38:46.497Z,8.01
2016-12-14T05:39:46.489Z,8.07
2016-12-14T05:40:46.484Z,8.04
2016-12-14T05:41:46.469Z,8.05
2016-12-14T05:42:46.462Z,8.01
2016-12-14T05:43:46.457Z,8.12
2016-12-14T05:44:46.446Z,8.11
2016-12-14T05:45:46.431Z,8.11
2016-12-14T05:46:46.428Z,8.19
2016-12-14T05:47:46.412Z,8.15
2016-12-14T05:48:46.399Z,8.12
2016-12-14T05:49:46.391Z,8.16
2016-12-14T05:50:46.381Z,8.15
2016-12-14T05:51:46.371Z,8.16
2016-12-14T05:52:46.358Z,8.15
2016-12-14T05:53:46.353Z,8.11
2016-12-14T05:54:46.335Z,8.12
2016-12-14T05:55:46.343Z,8.22
2016-12-14T05:56:46.326Z,8.26
2016-12-14T05:57:46.309Z,8.23
2016-12-14T05:58:46.303Z,8.19
2016-12-14T05:59:46.287Z,8.22
2016-12-14T06:00:46.277Z,8.19
2016-12-14T06:01:46.278Z,8.15
2016-12-14T06:02:46.265Z,8.12
2016-12-14T06:03:46.257Z,8.19
2016-12-14T06:04:46.243Z,8.12
2016-12-14T06:05:46.232Z,8.16
2016-12-14T06:06:46.228Z,8.15
2016-12-14T06:07:46.215Z,8.04
2016-12-14T06:08:46.211Z,8.11
2016-12-14T06:09:46.194Z,8.12
2016-12-14T06:10:46.186Z,8.05
2016-12-14T06:11:46.166Z,8.04
2016-12-14T06:12:46.160Z,8.18
2016-12-14T06:13:46.149Z,8.01
2016-12-14T06:14:46.140Z,8.15
2016-12-14T06:15:46.139Z,8.15
2016-12-14T06:16:46.124Z,8
2016-12-14T06:17:46.115Z,8.05
2016-12-14T06:18:46.101Z,8.18
2016-12-14T06:19:46.123Z,8.12
2016-12-14T06:20:46.096Z,8.1
2016-12-14T06:21:46.080Z,7.97
2016-12-14T06:22:46.065Z,8.07
2016-12-14T06:23:46.058Z,8.05
2016-12-14T06:24:46.044Z,8.1
2016-12-14T06:25:46.030Z,8.19
2016-12-14T06:26:46.031Z,8.1
2016-12-14T06:27:46.016Z,8.04
2016-12-14T06:28:46.005Z,8.16
2016-12-14T06:29:46.305Z,8.15
2016-12-14T06:30:45.986Z,8.19
2016-12-14T06:31:45.975Z,8.22
2016-12-14T06:32:45.961Z,8.18
2016-12-14T06:33:45.951Z,8.11
2016-12-14T06:34:45.952Z,8.22
2016-12-14T06:35:45.933Z,8.19
2016-12-14T06:36:45.955Z,8.11
2016-12-14T06:37:45.911Z,8.18
2016-12-14T06:38:45.909Z,8.11
2016-12-14T06:39:45.892Z,8.18
2016-12-14T06:40:45.889Z,8.05
2016-12-14T06:41:45.881Z,8.12
2016-12-14T06:42:45.870Z,8.1
2016-12-14T06:43:45.859Z,8.05
2016-12-14T06:44:45.847Z,8.2
2016-12-14T06:45:45.838Z,8.11
2016-12-14T06:46:45.830Z,8.12
2016-12-14T06:47:45.819Z,8.18
2016-12-14T06:48:45.804Z,8.12
2016-12-14T06:49:45.795Z,8.18
2016-12-14T06:50:45.796Z,8.16
2016-12-14T06:51:45.772Z,8.19
2016-12-14T06:52:45.770Z,8.18
2016-12-14T06:53:45.764Z,8.04
2016-12-14T06:54:45.748Z,8.16
2016-12-14T06:55:45.737Z,8.05
2016-12-14T06:56:45.732Z,8.15
2016-12-14T06:57:45.725Z,8.15
2016-12-14T06:58:45.705Z,8.18
2016-12-14T06:59:45.697Z,8.16
2016-12-14T07:00:45.689Z,8.18
2016-12-14T07:01:45.680Z,8.15
2016-12-14T07:02:45.671Z,8.16
2016-12-14T07:03:45.659Z,8.16
2016-12-14T07:04:45.651Z,8.01
2016-12-14T07:05:45.640Z,8.16
2016-12-14T07:06:45.934Z,8.25
2016-12-14T07:07:45.616Z,8.23
2016-12-14T07:08:45.608Z,8.33
2016-12-14T07:09:45.599Z,8.29
2016-12-14T07:10:45.594Z,8.29
2016-12-14T07:11:45.582Z,8.28
2016-12-14T07:12:45.573Z,8.28
2016-12-14T07:13:45.560Z,8.34
2016-12-14T07:14:45.551Z,8.36
2016-12-14T07:15:45.544Z,8.36
2016-12-14T07:16:45.533Z,8.3
2016-12-14T07:17:45.524Z,8.36
2016-12-14T07:18:45.543Z,8.41
2016-12-14T07:19:45.506Z,8.43
2016-12-14T07:20:45.493Z,8.48
2016-12-14T07:21:45.478Z,8.48
2016-12-14T07:22:45.475Z,8.41
2016-12-14T07:23:45.464Z,8.45
2016-12-14T07:24:45.452Z,8.47
2016-12-14T07:25:45.444Z,8.47
2016-12-14T07:26:45.433Z,8.41
2016-12-14T07:27:45.429Z,8.43
2016-12-14T07:28:45.415Z,8.43
2016-12-14T07:29:45.408Z,8.43
2016-12-14T07:30:45.402Z,8.47
2016-12-14T07:31:45.383Z,8.41
2016-12-14T07:32:45.371Z,8.47
2016-12-14T07:33:45.363Z,8.43
2016-12-14T07:34:45.355Z,8.44
2016-12-14T07:35:45.344Z,8.48
2016-12-14T07:36:45.337Z,8.5
2016-12-14T07:37:45.322Z,8.59
2016-12-14T07:38:45.318Z,8.58
2016-12-14T07:39:45.339Z,8.48
2016-12-14T07:40:45.299Z,8.56
2016-12-14T07:41:45.292Z,8.59
2016-12-14T07:42:45.282Z,8.5
2016-12-14T07:43:45.272Z,8.53
2016-12-14T07:44:45.264Z,8.52
2016-12-14T07:45:45.261Z,8.47
2016-12-14T07:46:45.549Z,8.52
2016-12-14T07:47:45.233Z,8.52
2016-12-14T07:48:45.225Z,8.34
2016-12-14T07:49:45.211Z,8.3
2016-12-14T07:50:45.202Z,8.25
2016-12-14T07:51:45.198Z,8.15
2016-12-14T07:52:45.182Z,8.16
2016-12-14T07:53:45.173Z,8.12
2016-12-14T07:54:45.161Z,8.15
2016-12-14T07:55:45.154Z,8.1
2016-12-14T07:56:45.150Z,8.22
2016-12-14T07:57:45.141Z,8.23
2016-12-14T07:58:45.127Z,8.29
2016-12-14T07:59:45.120Z,8.29
2016-12-14T08:00:45.113Z,8.33
2016-12-14T08:01:45.097Z,8.33
2016-12-14T08:02:45.088Z,8.33
2016-12-14T08:03:45.079Z,8.3
2016-12-14T08:04:45.074Z,8.36
2016-12-14T08:05:45.358Z,8.19
2016-12-14T08:06:45.051Z,8.26
2016-12-14T08:07:45.044Z,8.19
2016-12-14T08:08:45.029Z,8.18
2016-12-14T08:09:45.017Z,8.11
2016-12-14T08:10:45.011Z,8.15
2016-12-14T08:11:45.006Z,8.01
2016-12-14T08:12:44.987Z,7.86
2016-12-14T08:13:44.977Z,7.86
2016-12-14T08:14:44.976Z,7.83
2016-12-14T08:15:44.967Z,7.8
2016-12-14T08:16:44.951Z,7.74
2016-12-14T08:17:44.944Z,7.85
2016-12-14T08:18:44.933Z,7.8
2016-12-14T08:19:44.922Z,7.79
2016-12-14T08:20:44.912Z,7.86
2016-12-14T08:21:45.206Z,7.69
2016-12-14T08:22:44.890Z,7.72
2016-12-14T08:23:44.880Z,7.68
2016-12-14T08:24:44.876Z,7.61
2016-12-14T08:25:44.860Z,7.6
2016-12-14T08:26:44.858Z,7.58
2016-12-14T08:27:44.847Z,7.53
2016-12-14T08:28:44.829Z,7.46
2016-12-14T08:29:44.824Z,7.49
2016-12-14T08:30:45.121Z,7.49
2016-12-14T08:31:44.807Z,7.37
2016-12-14T08:32:44.798Z,7.46
2016-12-14T08:33:44.784Z,7.46
2016-12-14T08:34:44.772Z,7.43
2016-12-14T08:35:44.762Z,7.37
2016-12-14T08:36:44.752Z,7.42
2016-12-14T08:37:44.748Z,7.32
2016-12-14T08:38:44.734Z,7.27
2016-12-14T08:39:44.750Z,7.24
2016-12-14T08:40:45.022Z,7.23
2016-12-14T08:41:44.705Z,7.09
2016-12-14T08:42:44.701Z,7.17
2016-12-14T08:43:44.686Z,7.16
2016-12-14T08:44:44.672Z,7.06
2016-12-14T08:45:44.665Z,7.12
2016-12-14T08:46:44.851Z,7.12
2016-12-14T08:47:44.645Z,7.07
2016-12-14T08:48:44.633Z,7.15
2016-12-14T08:49:44.626Z,7.1
2016-12-14T08:50:44.610Z,7.05
2016-12-14T08:51:44.602Z,7.03
2016-12-14T08:52:44.589Z,6.98
2016-12-14T08:53:44.577Z,6.94
2016-12-14T08:54:44.569Z,6.95
2016-12-14T08:55:44.564Z,6.98
2016-12-14T08:56:44.547Z,7.05
2016-12-14T08:57:44.542Z,6.95
2016-12-14T08:58:44.531Z,6.92
2016-12-14T08:59:44.520Z,6.95
2016-12-14T09:00:44.508Z,7.05
2016-12-14T09:01:44.497Z,6.92
2016-12-14T09:02:44.494Z,7.09
2016-12-14T09:03:44.476Z,6.97
2016-12-14T09:04:44.469Z,7.17
2016-12-14T09:05:44.456Z,7.03
2016-12-14T09:06:44.449Z,7.12
2016-12-14T09:07:44.444Z,7.2
2016-12-14T09:08:44.422Z,7.12
2016-12-14T09:09:44.419Z,7.15
2016-12-14T09:10:44.408Z,7.05
2016-12-14T09:11:44.394Z,7.06
2016-12-14T09:12:44.388Z,7.17
2016-12-14T09:13:44.372Z,7.15
2016-12-14T09:14:44.362Z,7.15
2016-12-14T09:15:44.353Z,7.16
2016-12-14T09:16:44.342Z,7.24
2016-12-14T09:17:44.644Z,7.2
2016-12-14T09:18:44.320Z,7.23
2016-12-14T09:19:44.308Z,7.21
2016-12-14T09:20:44.305Z,7.13
2016-12-14T09:21:44.291Z,7.09
2016-12-14T09:22:44.303Z,7.07
2016-12-14T09:23:44.267Z,7.16
2016-12-14T09:24:44.261Z,7.13
2016-12-14T09:25:44.251Z,7.16
2016-12-14T09:26:44.238Z,7.12
2016-12-14T09:27:44.226Z,7.15
2016-12-14T09:28:44.244Z,7.17
2016-12-14T09:29:44.202Z,7.24
2016-12-14T09:30:44.196Z,7.28
2016-12-14T09:31:44.191Z,7.3
2016-12-14T09:32:44.172Z,7.3
2016-12-14T09:33:44.172Z,7.42
2016-12-14T09:34:44.159Z,7.45
2016-12-14T09:35:44.142Z,7.42
2016-12-14T09:36:44.132Z,7.53
2016-12-14T09:37:44.131Z,7.52
2016-12-14T09:38:44.118Z,7.6
2016-12-14T09:39:44.100Z,7.67
2016-12-14T09:40:44.399Z,7.71
2016-12-14T09:41:44.086Z,7.67
2016-12-14T09:42:44.084Z,7.64
2016-12-14T09:43:44.095Z,7.68
2016-12-14T09:44:44.057Z,7.67
2016-12-14T09:45:44.047Z,7.61
2016-12-14T09:46:44.032Z,7.68
2016-12-14T09:47:44.024Z,7.58
2016-12-14T09:48:44.023Z,7.58
2016-12-14T09:49:44.007Z,7.5
2016-12-14T09:50:43.997Z,7.58
2016-12-14T09:51:43.984Z,7.49
2016-12-14T09:52:43.989Z,7.5
2016-12-14T09:53:43.968Z,7.6
2016-12-14T09:54:43.959Z,7.48
2016-12-14T09:55:43.946Z,7.52
2016-12-14T09:56:43.936Z,7.49
2016-12-14T09:57:43.932Z,7.52
2016-12-14T09:58:43.922Z,7.5
2016-12-14T09:59:43.907Z,7.58
2016-12-14T10:00:43.900Z,7.61
2016-12-14T10:01:43.890Z,7.71
2016-12-14T10:02:43.880Z,7.77
2016-12-14T10:03:43.901Z,7.75
2016-12-14T10:04:43.862Z,7.86
2016-12-14T10:05:43.844Z,7.82
2016-12-14T10:06:43.832Z,7.82
2016-12-14T10:07:43.827Z,7.83
2016-12-14T10:08:43.817Z,7.85
2016-12-14T10:09:43.815Z,7.85
2016-12-14T10:10:43.798Z,7.79
2016-12-14T10:11:44.087Z,7.82
2016-12-14T10:12:43.780Z,7.89
2016-12-14T10:13:43.797Z,7.86
2016-12-14T10:14:43.761Z,7.95
2016-12-14T10:15:43.748Z,7.98
2016-12-14T10:16:43.734Z,8
2016-12-14T10:17:43.728Z,8.02
2016-12-14T10:18:44.026Z,8.02
2016-12-14T10:19:43.715Z,7.95
2016-12-14T10:20:43.701Z,7.86
2016-12-14T10:21:43.694Z,7.83
2016-12-14T10:22:43.680Z,7.75
2016-12-14T10:23:43.676Z,7.77
2016-12-14T10:24:43.666Z,7.77
2016-12-14T10:25:43.656Z,7.77
2016-12-14T10:26:43.642Z,7.83
2016-12-14T10:27:43.635Z,7.92
2016-12-14T10:28:43.626Z,8.02
2016-12-14T10:29:43.914Z,8.02
2016-12-14T10:30:43.908Z,8.02
2016-12-14T10:31:43.601Z,7.93
2016-12-14T10:32:43.591Z,7.89
2016-12-14T10:33:43.576Z,7.8
2016-12-14T10:34:43.571Z,7.86
2016-12-14T10:35:43.559Z,7.92
2016-12-14T10:36:43.553Z,7.86
2016-12-14T10:37:43.583Z,7.86
2016-12-14T10:38:43.534Z,8.01
2016-12-14T10:39:43.522Z,8.05
2016-12-14T10:40:43.515Z,8.05
2016-12-14T10:41:43.499Z,8.04
2016-12-14T10:42:43.494Z,8.01
2016-12-14T10:43:43.488Z,8.01
2016-12-14T10:44:43.480Z,8.02
2016-12-14T10:45:43.457Z,7.98
2016-12-14T10:46:43.456Z,8
2016-12-14T10:47:43.740Z,8
2016-12-14T10:48:43.446Z,8.05
2016-12-14T10:49:43.431Z,8.02
2016-12-14T10:50:43.417Z,8.12
2016-12-14T10:51:43.412Z,8.26
2016-12-14T10:52:43.407Z,8.28
2016-12-14T10:53:43.394Z,8.37
2016-12-14T10:54:43.384Z,8.44
2016-12-14T10:55:43.375Z,8.5
2016-12-14T10:56:43.366Z,8.52
2016-12-14T10:57:43.352Z,8.5
2016-12-14T10:58:43.345Z,8.62
2016-12-14T10:59:43.329Z,8.71
2016-12-14T11:00:43.326Z,8.81
2016-12-14T11:01:43.311Z,8.94
2016-12-14T11:02:43.316Z,9.08
2016-12-14T11:03:43.299Z,9.18
2016-12-14T11:04:43.315Z,9.28
2016-12-14T11:05:43.283Z,9.32
2016-12-14T11:06:43.279Z,9.4
2016-12-14T11:07:43.266Z,9.32
2016-12-14T11:08:43.257Z,9.38
2016-12-14T11:09:43.249Z,9.32
2016-12-14T11:10:43.241Z,9.29
2016-12-14T11:11:43.231Z,9.26
2016-12-14T11:12:43.223Z,9.26
2016-12-14T11:13:43.222Z,9.21
2016-12-14T11:14:43.204Z,9.21
2016-12-14T11:15:43.195Z,9.18
2016-12-14T11:16:43.182Z,9.2
2016-12-14T11:17:43.183Z,9.23
2016-12-14T11:18:43.173Z,9.18
2016-12-14T11:19:43.163Z,9.2
2016-12-14T11:20:43.182Z,9.08
2016-12-14T11:21:43.146Z,9.14
2016-12-14T11:22:43.140Z,9.1
2016-12-14T11:23:43.125Z,9.15
2016-12-14T11:24:43.120Z,9.18
2016-12-14T11:25:43.118Z,9.15
2016-12-14T11:26:43.101Z,9.1
2016-12-14T11:27:43.094Z,9.02
2016-12-14T11:28:43.085Z,9.04
2016-12-14T11:29:43.073Z,8.99
2016-12-14T11:30:43.068Z,8.92
2016-12-14T11:31:43.058Z,8.84
2016-12-14T11:32:43.050Z,8.89
2016-12-14T11:33:43.042Z,8.92
2016-12-14T11:34:43.036Z,8.92
2016-12-14T11:35:43.027Z,8.94
2016-12-14T11:36:43.015Z,8.96
2016-12-14T11:37:43.003Z,8.83
2016-12-14T11:38:43.002Z,8.81
2016-12-14T11:39:42.986Z,8.86
2016-12-14T11:40:42.981Z,8.79
2016-12-14T11:41:43.014Z,8.77
2016-12-14T11:42:42.968Z,8.66
2016-12-14T11:43:42.956Z,8.61
2016-12-14T11:44:42.954Z,8.5
2016-12-14T11:45:42.936Z,8.45
2016-12-14T11:46:42.932Z,8.38
2016-12-14T11:47:42.919Z,8.44
2016-12-14T11:48:42.909Z,8.44
2016-12-14T11:49:42.935Z,8.48
2016-12-14T11:50:42.891Z,8.4
2016-12-14T11:51:42.887Z,8.45
2016-12-14T11:52:42.876Z,8.4
2016-12-14T11:53:43.178Z,8.3
2016-12-14T11:54:43.152Z,8.37
2016-12-14T11:55:42.850Z,8.37
2016-12-14T11:56:42.837Z,8.43
2016-12-14T11:57:42.832Z,8.33
2016-12-14T11:58:42.817Z,8.34
2016-12-14T11:59:42.820Z,8.28
2016-12-14T12:00:42.800Z,8.33
2016-12-14T12:01:42.795Z,8.26
2016-12-14T12:02:42.798Z,8.23
2016-12-14T12:03:42.787Z,8.22
2016-12-14T12:04:43.080Z,8.22
2016-12-14T12:05:42.770Z,8.1
2016-12-14T12:06:42.762Z,8.15
2016-12-14T12:07:43.053Z,8.15
2016-12-14T12:08:43.041Z,8.15
2016-12-14T12:09:42.732Z,8.15
2016-12-14T12:10:42.725Z,8.1
2016-12-14T12:11:42.713Z,8.08
2016-12-14T12:12:42.712Z,8.15
2016-12-14T12:13:42.727Z,8.16
2016-12-14T12:14:42.686Z,8.15
2016-12-14T12:15:42.676Z,8.08
2016-12-14T12:16:42.664Z,8.16
2016-12-14T12:17:42.656Z,8.18
2016-12-14T12:18:42.648Z,8.12
2016-12-14T12:19:42.639Z,8.05
2016-12-14T12:20:42.930Z,8.02
2016-12-14T12:21:42.621Z,8.01
2016-12-14T12:22:42.610Z,8.04
2016-12-14T12:23:42.602Z,8.02
2016-12-14T12:24:42.589Z,8.01
2016-12-14T12:25:42.884Z,8.04
2016-12-14T12:26:42.573Z,8.04
2016-12-14T12:27:42.561Z,7.97
2016-12-14T12:28:42.586Z,8.04
2016-12-14T12:29:42.546Z,8.16
2016-12-14T12:30:42.535Z,8.11
2016-12-14T12:31:42.526Z,8.28
2016-12-14T12:32:42.515Z,8.3
2016-12-14T12:33:42.507Z,8.25
2016-12-14T12:34:42.500Z,8.3
2016-12-14T12:35:42.488Z,8.3
2016-12-14T12:36:42.478Z,8.33
2016-12-14T12:37:42.469Z,8.33
2016-12-14T12:38:42.463Z,8.36
2016-12-14T12:39:42.449Z,8.33
2016-12-14T12:40:42.442Z,8.37
2016-12-14T12:41:42.440Z,8.34
2016-12-14T12:42:42.426Z,8.4
2016-12-14T12:43:42.416Z,8.36
2016-12-14T12:44:42.407Z,8.43
2016-12-14T12:45:42.406Z,8.4
2016-12-14T12:46:42.389Z,8.34
2016-12-14T12:47:42.374Z,8.43
2016-12-14T12:48:42.366Z,8.5
2016-12-14T12:49:42.657Z,8.36
2016-12-14T12:50:42.346Z,8.48
2016-12-14T12:51:42.639Z,8.53
2016-12-14T12:52:42.328Z,8.56
2016-12-14T12:53:42.322Z,8.47
2016-12-14T12:54:42.308Z,8.47
2016-12-14T12:55:42.306Z,8.47
2016-12-14T12:56:42.290Z,8.45
2016-12-14T12:57:42.294Z,8.53
2016-12-14T12:58:42.270Z,8.48
2016-12-14T12:59:42.262Z,8.4
2016-12-14T13:00:42.257Z,8.38
2016-12-14T13:01:42.247Z,8.48
2016-12-14T13:02:42.236Z,8.41
2016-12-14T13:03:42.224Z,8.47
2016-12-14T13:04:42.217Z,8.34
2016-12-14T13:05:42.207Z,8.43
2016-12-14T13:06:42.197Z,8.43
2016-12-14T13:07:42.191Z,8.44
2016-12-14T13:08:42.179Z,8.36
2016-12-14T13:09:42.172Z,8.34
2016-12-14T13:10:42.162Z,8.29
2016-12-14T13:11:42.152Z,8.26
2016-12-14T13:12:42.143Z,8.25
2016-12-14T13:13:42.140Z,8.2
2016-12-14T13:14:42.123Z,8.15
2016-12-14T13:15:42.114Z,8.12
2016-12-14T13:16:42.110Z,8.15
2016-12-14T13:17:42.098Z,8.15
2016-12-14T13:18:42.086Z,8.15
2016-12-14T13:19:42.077Z,8.25
2016-12-14T13:20:42.071Z,8.34
2016-12-14T13:21:42.056Z,8.33
2016-12-14T13:22:42.046Z,8.38